createdAt,value
2019-04-11T00:02:22.647Z,65.35
2019-04-11T00:04:56.468Z,65.78
2019-04-11T00:07:30.143Z,65.88
2019-04-11T00:10:06.136Z,66.37
2019-04-11T00:12:38.923Z,66.41
2019-04-11T00:15:12.920Z,66.66
2019-04-11T00:17:46.026Z,66.71
2019-04-11T00:20:18.642Z,66.45
2019-04-11T00:22:51.539Z,66.72
2019-04-11T00:25:27.380Z,66.77
2019-04-11T00:28:01.446Z,66.59
2019-04-11T00:30:34.395Z,66.72
2019-04-11T00:33:08.295Z,66.81
2019-04-11T00:35:41.865Z,66.65
2019-04-11T00:38:15.993Z,66.51
2019-04-11T00:40:49.666Z,66.56
2019-04-11T00:43:30.624Z,66.02
2019-04-11T00:46:08.306Z,65.56
2019-04-11T00:48:41.853Z,66.01
2019-04-11T00:51:17.110Z,66.07
2019-04-11T00:53:50.222Z,66.36
2019-04-11T00:56:24.091Z,66.66
2019-04-11T00:58:58.178Z,67.00
2019-04-11T01:01:31.622Z,67.08
2019-04-11T01:04:05.698Z,67.19
2019-04-11T01:06:38.483Z,67.30
2019-04-11T01:09:12.267Z,67.54
2019-04-11T01:11:46.336Z,67.73
2019-04-11T01:14:18.929Z,68.34
2019-04-11T01:17:09.458Z,68.24
2019-04-11T01:19:42.746Z,68.42
2019-04-11T01:22:16.214Z,68.33
2019-04-11T01:24:50.284Z,68.78
2019-04-11T01:27:23.699Z,68.35
2019-04-11T01:29:57.875Z,68.62
2019-04-11T01:32:30.598Z,68.96
2019-04-11T01:35:04.705Z,68.79
2019-04-11T01:37:39.747Z,68.78
2019-04-11T01:40:13.826Z,68.60
2019-04-11T01:42:47.146Z,68.28
2019-04-11T01:45:21.412Z,68.61
2019-04-11T01:48:01.549Z,68.81
2019-04-11T01:50:35.230Z,69.14
2019-04-11T01:53:08.927Z,69.15
2019-04-11T01:55:42.832Z,69.16
2019-04-11T01:58:16.293Z,68.93
2019-04-11T02:01:04.656Z,68.62
2019-04-11T02:03:47.611Z,68.86
2019-04-11T02:06:21.406Z,69.19
2019-04-11T02:08:55.548Z,68.93
2019-04-11T02:11:28.318Z,69.39
2019-04-11T02:14:10.933Z,69.57
2019-04-11T02:16:50.631Z,69.79
2019-04-11T02:19:23.886Z,69.89
2019-04-11T02:22:10.416Z,70.20
2019-04-11T02:24:54.327Z,70.38
2019-04-11T02:27:27.916Z,70.44
2019-04-11T02:30:01.139Z,70.16
2019-04-11T02:32:37.037Z,70.22
2019-04-11T02:35:11.174Z,70.31
2019-04-11T02:37:45.844Z,70.60
2019-04-11T02:40:20.645Z,70.60
2019-04-11T02:42:57.161Z,70.74
2019-04-11T02:45:43.318Z,71.12
2019-04-11T02:48:24.548Z,71.29
2019-04-11T02:50:58.419Z,71.60
2019-04-11T02:53:32.677Z,71.66
2019-04-11T02:56:09.320Z,71.74
2019-04-11T02:58:46.320Z,72.01
2019-04-11T03:01:20.148Z,72.23
2019-04-11T03:03:54.053Z,72.27
2019-04-11T03:06:28.009Z,72.48
2019-04-11T03:09:02.569Z,72.71
2019-04-11T03:11:38.472Z,72.97
2019-04-11T03:14:16.893Z,73.30
2019-04-11T03:17:02.493Z,73.44
2019-04-11T03:19:59.502Z,73.54
2019-04-11T03:22:45.300Z,74.21
2019-04-11T03:25:22.609Z,74.72
2019-04-11T03:27:57.012Z,74.88
2019-04-11T03:30:46.517Z,74.91
2019-04-11T03:37:13.575Z,75.28
2019-04-11T03:40:19.102Z,75.33
2019-04-11T03:43:11.107Z,75.85
2019-04-11T03:46:16.387Z,75.78
2019-04-11T03:49:06.342Z,75.91
2019-04-11T03:51:52.951Z,76.05
2019-04-11T03:54:27.317Z,76.20
2019-04-11T03:57:01.258Z,76.60
2019-04-11T03:59:36.241Z,76.51
2019-04-11T04:02:13.234Z,76.87
2019-04-11T04:04:49.363Z,76.76
2019-04-11T04:07:24.518Z,77.03
2019-04-11T04:09:58.534Z,77.10
2019-04-11T04:12:33.652Z,77.16
2019-04-11T04:15:31.352Z,77.41
2019-04-11T04:18:23.873Z,77.36
2019-04-11T04:21:15.558Z,77.56
2019-04-11T04:23:51.917Z,78.09
2019-04-11T04:26:29.122Z,77.96
2019-04-11T04:29:02.633Z,78.17
2019-04-11T04:31:38.549Z,78.02
2019-04-11T04:34:11.455Z,78.16
2019-04-11T04:36:47.176Z,78.50
2019-04-11T04:39:22.705Z,78.59
2019-04-11T04:42:03.852Z,78.75
2019-04-11T04:44:42.915Z,78.65
2019-04-11T04:47:26.438Z,78.81
2019-04-11T04:50:06.375Z,78.82
2019-04-11T04:52:40.855Z,78.79
2019-04-11T04:55:14.417Z,78.88
2019-04-11T04:57:50.751Z,78.84
2019-04-11T05:00:25.389Z,79.23
2019-04-11T05:02:59.846Z,79.52
2019-04-11T05:05:35.765Z,79.81
2019-04-11T05:08:10.576Z,79.74
2019-04-11T05:10:45.213Z,80.01
2019-04-11T05:13:19.384Z,79.84
2019-04-11T05:16:05.723Z,79.96
2019-04-11T05:18:48.386Z,80.05
2019-04-11T05:21:21.275Z,80.82
2019-04-11T05:23:55.018Z,80.83
2019-04-11T05:26:28.043Z,80.82
2019-04-11T05:29:01.078Z,80.88
2019-04-11T05:31:34.448Z,80.67
2019-04-11T05:34:07.796Z,80.61
2019-04-11T05:36:42.873Z,80.82
2019-04-11T05:39:18.557Z,80.71
2019-04-11T05:41:52.946Z,80.66
2019-04-11T05:44:25.735Z,80.50
2019-04-11T05:47:01.886Z,80.24
2019-04-11T05:49:43.915Z,80.10
2019-04-11T05:52:17.848Z,80.04
2019-04-11T05:54:54.250Z,79.90
2019-04-11T05:57:33.905Z,79.63
2019-04-11T06:00:13.889Z,79.39
2019-04-11T06:02:53.306Z,79.12
2019-04-11T06:05:35.450Z,78.57
2019-04-11T06:08:21.141Z,78.29
2019-04-11T06:11:06.457Z,78.03
2019-04-11T06:13:44.793Z,77.66
2019-04-11T06:16:18.777Z,77.10
2019-04-11T06:19:20.676Z,76.60
2019-04-11T06:21:58.120Z,76.16
2019-04-11T06:24:36.638Z,75.66
2019-04-11T06:27:17.015Z,74.84
2019-04-11T06:30:01.374Z,74.61
2019-04-11T06:32:56.914Z,74.12
2019-04-11T06:35:39.944Z,73.24
2019-04-11T06:38:18.512Z,72.57
2019-04-11T06:40:59.953Z,71.20
2019-04-11T06:43:41.003Z,70.59
2019-04-11T06:46:47.152Z,69.75
2019-04-11T06:49:46.762Z,69.58
2019-04-11T06:52:32.808Z,68.30
2019-04-11T06:55:20.732Z,68.11
2019-04-11T06:57:56.372Z,67.80
2019-04-11T07:00:29.586Z,66.79
2019-04-11T07:03:03.498Z,66.75
2019-04-11T07:05:38.528Z,65.99
2019-04-11T07:08:11.700Z,64.89
2019-04-11T07:10:51.016Z,64.33
2019-04-11T07:13:37.198Z,63.25
2019-04-11T07:16:11.436Z,63.01
2019-04-11T07:18:57.046Z,62.33
2019-04-11T07:21:35.438Z,61.47
2019-04-11T07:24:13.883Z,60.96
2019-04-11T07:26:54.362Z,60.75
2019-04-11T07:29:50.681Z,60.84
2019-04-11T07:32:34.351Z,60.86
2019-04-11T07:35:15.662Z,59.57
2019-04-11T07:37:53.287Z,58.87
2019-04-11T07:40:33.163Z,59.26
2019-04-11T07:43:26.800Z,58.26
2019-04-11T07:46:22.137Z,56.68
2019-04-11T07:48:59.455Z,56.49
2019-04-11T07:51:34.382Z,56.16
2019-04-11T07:54:15.711Z,53.30
2019-04-11T07:57:08.357Z,48.09
2019-04-11T07:59:47.464Z,45.61
2019-04-11T08:02:25.403Z,45.33
2019-04-11T08:05:13.186Z,44.18
2019-04-11T08:08:01.083Z,43.08
2019-04-11T08:10:38.189Z,42.28
2019-04-11T08:13:18.432Z,40.51
2019-04-11T08:15:58.904Z,39.96
2019-04-11T08:18:45.918Z,39.64
2019-04-11T08:21:26.186Z,39.27
2019-04-11T08:24:00.936Z,38.47
2019-04-11T08:26:53.171Z,38.59
2019-04-11T08:29:36.651Z,38.32
2019-04-11T08:32:15.808Z,37.53
2019-04-11T08:34:57.573Z,38.59
2019-04-11T08:37:41.886Z,36.96
2019-04-11T08:40:15.103Z,37.32
2019-04-11T08:43:02.626Z,38.48
2019-04-11T08:45:40.591Z,39.09
2019-04-11T08:48:13.322Z,38.78
2019-04-11T08:50:50.444Z,40.20
2019-04-11T08:53:42.844Z,39.03
2019-04-11T08:56:18.849Z,41.64
2019-04-11T08:59:21.577Z,40.65
2019-04-11T09:01:54.425Z,40.63
2019-04-11T09:04:34.322Z,39.11
2019-04-11T09:07:07.767Z,38.91
2019-04-11T09:09:47.399Z,38.10
2019-04-11T09:12:20.565Z,34.56
2019-04-11T09:15:00.310Z,33.90
2019-04-11T09:17:48.379Z,33.66
2019-04-11T09:20:48.127Z,32.68
2019-04-11T09:23:33.542Z,31.38
2019-04-11T09:26:27.873Z,29.82
2019-04-11T09:29:04.077Z,28.83
2019-04-11T09:31:58.346Z,29.02
2019-04-11T09:34:57.630Z,28.60
2019-04-11T09:37:33.786Z,27.64
2019-04-11T09:40:23.918Z,27.90
2019-04-11T09:43:24.015Z,28.63
2019-04-11T09:46:18.579Z,30.03
2019-04-11T09:49:08.605Z,30.24
2019-04-11T09:51:51.989Z,29.10
2019-04-11T09:54:50.503Z,29.61
2019-04-11T09:57:32.389Z,28.89
2019-04-11T10:00:18.581Z,28.72
2019-04-11T10:02:58.801Z,28.60
2019-04-11T10:05:40.541Z,27.88
2019-04-11T10:08:26.955Z,27.60
2019-04-11T10:11:22.043Z,27.29
2019-04-11T10:14:10.740Z,27.76
2019-04-11T10:16:50.501Z,28.24
2019-04-11T10:19:46.464Z,28.47
2019-04-11T10:25:16.089Z,29.44
2019-04-11T10:27:55.205Z,28.76
2019-04-11T10:30:33.780Z,29.42
2019-04-11T10:33:12.941Z,30.44
2019-04-11T10:36:10.473Z,30.13
2019-04-11T10:38:43.251Z,30.06
2019-04-11T10:41:34.714Z,28.02
2019-04-11T10:44:09.675Z,27.13
2019-04-11T10:46:49.422Z,28.77
2019-04-11T10:49:44.221Z,28.49
2019-04-11T10:52:30.864Z,27.57
2019-04-11T10:55:11.852Z,29.12
2019-04-11T10:57:47.222Z,29.71
2019-04-11T11:00:27.555Z,29.65
2019-04-11T11:03:09.569Z,30.69
2019-04-11T11:05:55.591Z,30.59
2019-04-11T11:08:37.654Z,30.42
2019-04-11T11:11:16.416Z,30.70
2019-04-11T11:14:07.883Z,31.81
2019-04-11T11:16:48.662Z,30.31
2019-04-11T11:19:57.624Z,30.15
2019-04-11T11:23:10.952Z,29.45
2019-04-11T11:26:27.923Z,30.10
2019-04-11T11:29:22.745Z,30.29
2019-04-11T11:32:09.158Z,29.45
2019-04-11T11:38:09.354Z,28.72
2019-04-11T11:41:00.465Z,29.42
2019-04-11T11:43:35.045Z,29.39
2019-04-11T11:46:25.669Z,29.07
2019-04-11T11:49:08.239Z,30.70
2019-04-11T11:52:06.759Z,29.99
2019-04-11T11:54:44.056Z,30.14
2019-04-11T11:57:32.990Z,30.61
2019-04-11T12:00:30.125Z,30.85
2019-04-11T12:03:17.427Z,29.80
2019-04-11T12:06:00.799Z,29.83
2019-04-11T12:08:58.141Z,30.49
2019-04-11T12:12:02.234Z,29.96
2019-04-11T12:14:46.407Z,30.60
2019-04-11T12:17:55.660Z,30.90
2019-04-11T12:20:36.679Z,31.24
2019-04-11T12:23:19.616Z,31.83
2019-04-11T12:25:53.631Z,30.98
2019-04-11T12:28:49.982Z,31.02
2019-04-11T12:31:36.733Z,30.09
2019-04-11T12:34:30.912Z,31.40
2019-04-11T12:37:08.492Z,30.87
2019-04-11T12:40:03.796Z,30.28
2019-04-11T12:42:38.523Z,30.70
2019-04-11T12:45:32.723Z,31.31
2019-04-11T12:48:11.944Z,29.78
2019-04-11T12:51:13.993Z,30.39
2019-04-11T12:53:48.018Z,31.09
2019-04-11T12:56:48.115Z,30.77
2019-04-11T12:59:25.760Z,30.69
2019-04-11T13:02:23.009Z,31.85
2019-04-11T13:05:01.580Z,31.24
2019-04-11T13:07:41.237Z,30.73
2019-04-11T13:10:24.186Z,31.47
2019-04-11T13:13:19.262Z,29.90
2019-04-11T13:16:12.987Z,30.44
2019-04-11T13:19:04.901Z,31.09
2019-04-11T13:21:54.560Z,30.34
2019-04-11T13:24:56.610Z,30.91
2019-04-11T13:27:36.356Z,30.75
2019-04-11T13:30:16.799Z,31.42
2019-04-11T13:32:58.941Z,29.75
2019-04-11T13:35:49.155Z,30.57
2019-04-11T13:38:30.119Z,30.66
2019-04-11T13:41:20.267Z,31.05
2019-04-11T13:44:01.824Z,30.53
2019-04-11T13:46:56.190Z,30.36
2019-04-11T13:49:39.487Z,31.12
2019-04-11T13:52:33.296Z,29.97
2019-04-11T13:55:11.619Z,30.22
2019-04-11T13:58:11.484Z,30.25
2019-04-11T14:01:01.303Z,31.19
2019-04-11T14:03:58.832Z,31.71
2019-04-11T14:06:32.994Z,30.86
2019-04-11T14:09:25.887Z,30.66
2019-04-11T14:12:04.796Z,31.62
2019-04-11T14:14:40.967Z,30.71
2019-04-11T14:17:24.692Z,29.49
2019-04-11T14:20:04.411Z,30.88
2019-04-11T14:22:56.765Z,31.44
2019-04-11T14:25:49.556Z,31.57
2019-04-11T14:28:27.116Z,31.05
2019-04-11T14:31:22.656Z,30.91
2019-04-11T14:34:21.374Z,30.74
2019-04-11T14:37:05.464Z,30.53
2019-04-11T14:39:45.213Z,31.12
2019-04-11T14:42:26.581Z,31.48
2019-04-11T14:44:59.327Z,30.26
2019-04-11T14:47:40.238Z,30.53
2019-04-11T14:50:13.536Z,29.66
2019-04-11T14:52:52.575Z,30.20
2019-04-11T14:55:26.582Z,31.09
2019-04-11T14:58:23.530Z,31.08
2019-04-11T15:01:12.851Z,31.57
2019-04-11T15:04:00.325Z,31.22
2019-04-11T15:06:39.461Z,31.36
2019-04-11T15:09:32.173Z,32.38
2019-04-11T15:12:11.613Z,31.29
2019-04-11T15:15:14.701Z,31.83
2019-04-11T15:17:50.168Z,32.13
2019-04-11T15:20:36.437Z,31.61
2019-04-11T15:23:33.394Z,31.26
2019-04-11T15:26:38.925Z,31.69
2019-04-11T15:29:27.226Z,31.64
2019-04-11T15:32:21.573Z,31.64
2019-04-11T15:35:02.251Z,31.29
2019-04-11T15:37:58.690Z,32.02
2019-04-11T15:40:36.058Z,30.61
2019-04-11T15:43:28.413Z,30.89
2019-04-11T15:46:06.802Z,31.04
2019-04-11T15:49:00.082Z,31.68
2019-04-11T15:51:42.114Z,31.07
2019-04-11T15:54:42.014Z,31.10
2019-04-11T15:57:26.876Z,30.85
2019-04-11T16:00:19.723Z,31.33
2019-04-11T16:03:10.279Z,31.49
2019-04-11T16:05:48.937Z,31.40
2019-04-11T16:08:26.368Z,31.77
2019-04-11T16:11:12.957Z,32.38
2019-04-11T16:13:52.629Z,32.86
2019-04-11T16:16:35.399Z,32.62
2019-04-11T16:19:14.793Z,32.60
2019-04-11T16:22:01.803Z,32.74
2019-04-11T16:24:34.494Z,32.17
2019-04-11T16:27:26.675Z,31.79
2019-04-11T16:30:04.610Z,32.46
2019-04-11T16:32:40.313Z,32.96
2019-04-11T16:35:26.045Z,32.63
2019-04-11T16:38:00.965Z,32.77
2019-04-11T16:40:39.058Z,32.95
2019-04-11T16:43:13.884Z,33.33
2019-04-11T16:45:54.592Z,32.87
2019-04-11T16:48:27.647Z,33.41
2019-04-11T16:51:01.828Z,33.08
2019-04-11T16:53:36.098Z,33.47
2019-04-11T16:56:12.583Z,33.52
2019-04-11T16:58:55.865Z,33.81
2019-04-11T17:01:28.649Z,34.67
2019-04-11T17:04:02.513Z,34.26
2019-04-11T17:06:49.367Z,34.52
2019-04-11T17:09:30.260Z,34.72
2019-04-11T17:12:03.387Z,34.47
2019-04-11T17:14:36.483Z,35.29
2019-04-11T17:17:14.992Z,34.73
2019-04-11T17:19:48.156Z,35.43
2019-04-11T17:22:21.712Z,35.20
2019-04-11T17:24:59.380Z,35.08
2019-04-11T17:27:31.989Z,35.27
2019-04-11T17:30:07.893Z,35.37
2019-04-11T17:32:40.490Z,36.08
2019-04-11T17:35:15.291Z,35.74
2019-04-11T17:37:48.744Z,36.06
2019-04-11T17:40:21.174Z,35.97
2019-04-11T17:42:53.789Z,36.67
2019-04-11T17:45:26.882Z,37.13
2019-04-11T17:47:59.458Z,37.64
2019-04-11T17:50:32.763Z,38.16
2019-04-11T17:53:08.220Z,38.35
2019-04-11T17:55:40.886Z,39.09
2019-04-11T17:58:13.683Z,38.90
2019-04-11T18:00:52.252Z,39.40
2019-04-11T18:03:24.919Z,40.35
2019-04-11T18:05:58.176Z,40.60
2019-04-11T18:08:32.139Z,40.84
2019-04-11T18:11:06.156Z,41.63
2019-04-11T18:13:38.762Z,41.97
2019-04-11T18:16:13.151Z,43.15
2019-04-11T18:18:46.302Z,43.31
2019-04-11T18:21:19.217Z,43.09
2019-04-11T18:23:53.573Z,43.66
2019-04-11T18:26:26.351Z,43.55
2019-04-11T18:29:00.412Z,43.95
2019-04-11T18:31:34.110Z,43.88
2019-04-11T18:34:08.769Z,43.93
2019-04-11T18:36:52.378Z,44.15
2019-04-11T18:39:27.701Z,44.27
2019-04-11T18:42:01.545Z,44.72
2019-04-11T18:44:35.128Z,45.02
2019-04-11T18:47:07.919Z,45.47
2019-04-11T18:49:41.326Z,45.71
2019-04-11T18:52:19.873Z,46.27
2019-04-11T18:54:58.093Z,46.43
2019-04-11T18:57:31.093Z,46.53
2019-04-11T19:00:14.225Z,46.70
2019-04-11T19:02:50.155Z,47.21
2019-04-11T19:05:28.843Z,47.04
2019-04-11T19:08:04.409Z,47.05
2019-04-11T19:10:38.120Z,47.42
2019-04-11T19:13:11.584Z,47.51
2019-04-11T19:15:46.472Z,47.62
2019-04-11T19:18:23.233Z,47.98
2019-04-11T19:20:57.855Z,48.06
2019-04-11T19:23:30.555Z,48.67
2019-04-11T19:26:03.200Z,48.32
2019-04-11T19:28:36.890Z,48.37
2019-04-11T19:31:12.172Z,48.46
2019-04-11T19:33:45.026Z,48.92
2019-04-11T19:36:18.836Z,49.39
2019-04-11T19:38:53.126Z,49.53
2019-04-11T19:41:26.295Z,49.39
2019-04-11T19:43:59.435Z,49.59
2019-04-11T19:46:32.271Z,49.73
2019-04-11T19:49:05.039Z,49.44
2019-04-11T19:51:40.434Z,49.42
2019-04-11T19:54:13.067Z,49.67
2019-04-11T19:56:50.868Z,49.66
2019-04-11T19:59:23.470Z,49.60
2019-04-11T20:01:56.048Z,49.75
2019-04-11T20:04:32.707Z,50.09
2019-04-11T20:07:09.170Z,50.17
2019-04-11T20:09:42.013Z,50.21
2019-04-11T20:12:15.302Z,49.80
2019-04-11T20:14:48.072Z,49.20
2019-04-11T20:17:20.757Z,49.39
2019-04-11T20:20:01.184Z,49.76
2019-04-11T20:22:39.291Z,49.97
2019-04-11T20:25:15.954Z,50.04
2019-04-11T20:27:50.686Z,50.11
2019-04-11T20:30:25.392Z,50.24
2019-04-11T20:33:26.609Z,50.60
2019-04-11T20:36:02.007Z,50.86
2019-04-11T20:38:36.362Z,51.27
2019-04-11T20:41:09.253Z,51.32
2019-04-11T20:43:43.180Z,51.55
2019-04-11T20:46:17.437Z,51.46
2019-04-11T20:48:50.156Z,51.34
2019-04-11T20:51:22.829Z,51.48
2019-04-11T20:53:55.849Z,51.55
2019-04-11T20:56:30.228Z,51.60
2019-04-11T20:59:03.162Z,51.55
2019-04-11T21:01:36.200Z,51.66
2019-04-11T21:04:11.409Z,51.66
2019-04-11T21:06:44.016Z,51.75
2019-04-11T21:09:17.029Z,51.85
2019-04-11T21:11:49.569Z,51.94
2019-04-11T21:14:22.420Z,52.15
2019-04-11T21:16:55.563Z,52.44
2019-04-11T21:19:28.354Z,52.06
2019-04-11T21:22:00.976Z,52.12
2019-04-11T21:24:35.545Z,52.36
2019-04-11T21:27:08.833Z,52.25
2019-04-11T21:29:42.346Z,52.17
2019-04-11T21:32:15.335Z,52.40
2019-04-11T21:34:49.427Z,52.75
2019-04-11T21:37:25.344Z,53.04
2019-04-11T21:39:58.390Z,53.58
2019-04-11T21:42:35.878Z,53.97
2019-04-11T21:45:13.986Z,54.04
2019-04-11T21:47:47.167Z,54.21
2019-04-11T21:50:19.766Z,53.74
2019-04-11T21:52:52.885Z,54.07
2019-04-11T21:55:25.788Z,54.36
2019-04-11T21:57:58.461Z,54.92
2019-04-11T22:00:42.666Z,55.33
2019-04-11T22:03:15.709Z,55.42
2019-04-11T22:05:49.912Z,55.66
2019-04-11T22:08:22.965Z,55.96
2019-04-11T22:10:55.499Z,56.17
2019-04-11T22:13:28.487Z,56.31
2019-04-11T22:16:01.650Z,56.47
2019-04-11T22:18:34.466Z,56.26
2019-04-11T22:21:07.047Z,56.11
2019-04-11T22:23:48.591Z,56.24
2019-04-11T22:26:22.043Z,56.57
2019-04-11T22:28:55.223Z,56.72
2019-04-11T22:31:29.242Z,56.89
2019-04-11T22:34:11.780Z,56.98
2019-04-11T22:36:44.908Z,56.73
2019-04-11T22:39:18.802Z,56.87
2019-04-11T22:41:51.342Z,56.74
2019-04-11T22:44:23.976Z,56.65
2019-04-11T22:46:57.968Z,56.69
2019-04-11T22:49:30.564Z,56.66
2019-04-11T22:52:03.160Z,56.69
2019-04-11T22:54:36.899Z,56.60
2019-04-11T22:57:11.684Z,56.45
2019-04-11T22:59:45.405Z,56.40
2019-04-11T23:02:26.795Z,56.42
2019-04-11T23:04:59.368Z,56.29
2019-04-11T23:07:32.158Z,56.38
2019-04-11T23:10:05.527Z,55.97
2019-04-11T23:12:38.257Z,55.95
2019-04-11T23:15:14.722Z,56.15
2019-04-11T23:17:48.227Z,56.26
2019-04-11T23:20:41.887Z,56.12
2019-04-11T23:23:17.075Z,55.65
2019-04-11T23:25:50.211Z,55.80
2019-04-11T23:28:23.599Z,56.00
2019-04-11T23:30:56.512Z,56.22
2019-04-11T23:33:29.081Z,56.51
2019-04-11T23:36:03.083Z,56.39
2019-04-11T23:38:36.989Z,56.00
2019-04-11T23:41:09.623Z,56.27
2019-04-11T23:43:42.691Z,56.28
2019-04-11T23:46:15.235Z,56.22
2019-04-11T23:48:47.834Z,56.32
2019-04-11T23:51:22.935Z,56.60
2019-04-11T23:53:59.764Z,56.96
2019-04-11T23:56:32.485Z,57.06
2019-04-11T23:59:05.845Z,57.02
